Time;durP1;ratioP1;P1;durP2;ratioP2;P2;SDS_P1;SDS_P2;PMS_P1;PMS_P2;Temp;Humidity;BMP_temperature;BMP_pressure;BME280_temperature;BME280_humidity;BME280_pressure;Samples;Min_cycle;Max_cycle;Signal;HPM_P1;HPM_P2
2023/07/18 00:00:13;;;;;;;;;4.00;4.00;;;;;21.29;51.47;101380.66;4846434;29;45688;-86
2023/07/18 00:02:39;;;;;;;;;3.67;3.67;;;;;21.19;51.16;101384.47;4846568;29;45411;-85
2023/07/18 00:05:06;;;;;;;;;2.00;2.00;;;;;21.19;50.77;101376.38;4847875;29;44807;-85
2023/07/18 00:07:31;;;;;;;;;4.00;2.00;;;;;21.16;50.67;101369.19;4830894;29;45470;-85
2023/07/18 00:09:57;;;;;;;;;2.00;2.00;;;;;21.21;51.10;101381.72;4832087;29;48304;-85
2023/07/18 00:12:23;;;;;;;;;2.00;2.00;;;;;21.23;51.12;101388.00;4849254;29;45429;-85
2023/07/18 00:14:48;;;;;;;;;4.00;3.33;;;;;21.23;51.06;101383.50;4832186;29;45401;-85
2023/07/18 00:17:15;;;;;;;;;3.33;3.33;;;;;21.21;50.95;101374.53;4848387;29;45625;-86
2023/07/18 00:19:40;;;;;;;;;3.00;3.00;;;;;21.17;50.68;101370.97;4831347;29;46797;-86
2023/07/18 00:22:07;;;;;;;;;4.33;3.67;;;;;21.23;50.56;101366.34;4847895;29;45687;-85
2023/07/18 00:24:33;;;;;;;;;2.67;2.67;;;;;21.26;50.43;101372.59;4832595;29;45513;-85
2023/07/18 00:26:59;;;;;;;;;3.00;3.00;;;;;21.34;50.33;101377.84;4832864;29;45545;-85
2023/07/18 00:29:26;;;;;;;;;4.33;3.00;;;;;21.32;50.36;101363.47;4831172;29;47807;-84
2023/07/18 00:35:14;;;;;;;;;4.00;4.00;;;;;21.26;50.49;101350.94;4850482;29;45282;-86
2023/07/18 00:37:40;;;;;;;;;4.00;3.00;;;;;21.24;50.25;101350.09;4833100;29;45500;-85
2023/07/18 00:40:10;;;;;;;;;5.00;5.00;;;;;21.35;50.96;101366.13;4848069;29;47222;-85
2023/07/18 00:42:37;;;;;;;;;3.00;3.00;;;;;21.29;50.90;101356.31;4831923;29;45506;-87
2023/07/18 00:45:04;;;;;;;;;6.00;4.33;;;;;21.26;50.73;101339.25;4848111;29;44965;-86
2023/07/18 00:47:30;;;;;;;;;5.00;3.00;;;;;21.25;50.52;101360.00;4834105;29;45820;-85
2023/07/18 00:49:55;;;;;;;;;4.67;4.67;;;;;21.24;51.07;101362.75;4850064;29;46895;-84
2023/07/18 00:52:21;;;;;;;;;4.00;2.67;;;;;21.14;51.28;101349.38;4834612;29;45460;-86
2023/07/18 00:54:47;;;;;;;;;1.00;1.00;;;;;21.06;50.88;101347.75;4851824;29;45399;-85
2023/07/18 00:57:13;;;;;;;;;5.00;4.33;;;;;21.07;50.86;101355.84;4836164;29;45441;-85
2023/07/18 00:59:38;;;;;;;;;2.00;2.00;;;;;20.98;50.65;101346.09;4846733;29;47249;-86
2023/07/18 01:02:05;;;;;;;;;4.67;4.00;;;;;20.98;50.70;101347.91;4832262;29;45500;-85
2023/07/18 01:04:31;;;;;;;;;2.00;2.00;;;;;21.03;50.93;101350.53;4830919;29;45445;-86
2023/07/18 01:06:58;;;;;;;;;2.33;2.33;;;;;20.94;50.89;101338.97;4831398;29;45490;-86
2023/07/18 01:09:23;;;;;;;;;2.00;2.00;;;;;20.96;51.08;101345.22;4847858;29;46959;-86
2023/07/18 01:11:48;;;;;;;;;3.00;3.00;;;;;20.91;51.29;101338.16;4834544;29;45199;-86
2023/07/18 01:14:14;;;;;;;;;3.00;1.00;;;;;20.93;50.99;101352.53;4830253;29;45492;-86
2023/07/18 01:16:49;;;;;;;;;2.00;2.00;;;;;20.87;50.90;101322.91;4830546;29;45320;-86
2023/07/18 01:19:14;;;;;;;;;3.33;2.67;;;;;20.77;51.10;101314.06;4832044;29;45498;-87
2023/07/18 01:21:42;;;;;;;;;2.00;2.00;;;;;20.84;51.42;101336.47;4832997;29;45391;-86
2023/07/18 01:24:07;;;;;;;;;3.00;3.00;;;;;20.74;51.94;101320.44;4831581;29;45318;-85
2023/07/18 01:26:32;;;;;;;;;3.00;2.00;;;;;20.82;51.55;101335.59;4845629;29;45403;-86
2023/07/18 01:28:58;;;;;;;;;2.67;2.67;;;;;20.80;51.27;101338.34;4832710;29;45816;-87
2023/07/18 01:31:23;;;;;;;;;2.00;2.00;;;;;20.81;51.57;101348.25;4830861;29;45402;-86
2023/07/18 01:33:49;;;;;;;;;1.00;1.00;;;;;20.73;51.56;101340.25;4832231;29;45435;-85
2023/07/18 01:36:15;;;;;;;;;2.67;2.33;;;;;20.79;51.64;101344.69;4832457;29;45451;-89
2023/07/18 01:38:40;;;;;;;;;2.33;2.33;;;;;20.77;51.51;101343.81;4829765;29;47114;-86
2023/07/18 01:41:07;;;;;;;;;2.33;2.33;;;;;20.78;51.58;101350.97;4831231;29;45254;-86
2023/07/18 01:43:34;;;;;;;;;2.00;2.00;;;;;20.68;51.74;101334.06;4830452;29;45456;-87
2023/07/18 01:46:00;;;;;;;;;2.33;2.33;;;;;20.70;51.72;101344.81;4846446;29;45281;-86
2023/07/18 01:48:26;;;;;;;;;3.00;3.00;;;;;20.69;51.62;101337.66;4833695;29;45302;-86
2023/07/18 01:50:54;;;;;;;;;4.33;3.00;;;;;20.69;52.02;101333.13;4831720;29;45420;-86
2023/07/18 01:53:20;;;;;;;;;2.00;2.00;;;;;20.52;51.67;101317.22;4830561;29;45361;-86
2023/07/18 01:55:52;;;;;;;;;3.00;3.00;;;;;20.53;51.98;101318.97;4829519;29;45950;-86
2023/07/18 01:58:20;;;;;;;;;3.00;2.00;;;;;20.58;52.20;101319.84;4828892;29;46995;-86
2023/07/18 02:00:52;;;;;;;;;3.00;3.00;;;;;20.52;51.74;101306.41;4843137;29;45782;-86
2023/07/18 02:03:20;;;;;;;;;2.00;2.00;;;;;20.55;52.68;101311.72;4834416;29;45216;-87
2023/07/18 02:05:45;;;;;;;;;2.33;2.33;;;;;20.47;52.68;101315.50;4851334;29;45398;-85
2023/07/18 02:08:11;;;;;;;;;4.00;3.00;;;;;20.37;52.50;101303.97;4834285;29;48088;-86
2023/07/18 02:10:39;;;;;;;;;3.00;3.00;;;;;20.22;52.64;101271.78;4849651;29;45852;-85
2023/07/18 02:13:04;;;;;;;;;2.00;2.00;;;;;20.33;52.18;101291.44;4833290;29;45427;-86
2023/07/18 02:15:30;;;;;;;;;1.00;1.00;;;;;20.45;52.15;101304.72;4850644;29;45407;-86
2023/07/18 02:17:55;;;;;;;;;1.67;1.67;;;;;20.48;52.17;101318.19;4833772;29;47981;-85
2023/07/18 02:20:21;;;;;;;;;2.00;2.00;;;;;20.40;52.56;101298.50;4848644;29;45356;-86
2023/07/18 02:22:47;;;;;;;;;3.00;3.00;;;;;20.43;52.83;101303.84;4834146;29;45462;-85
2023/07/18 02:25:17;;;;;;;;;2.00;2.00;;;;;20.19;53.22;101276.34;4851468;29;45310;-85
2023/07/18 02:27:43;;;;;;;;;0.67;0.67;;;;;20.28;52.68;101293.28;4833261;29;47051;-86
2023/07/18 02:30:12;;;;;;;;;1.00;1.00;;;;;20.12;53.35;101269.28;4832467;29;45484;-86
2023/07/18 02:32:39;;;;;;;;;2.00;2.00;;;;;20.25;53.10;101293.38;4832220;29;45359;-86
2023/07/18 02:35:06;;;;;;;;;2.00;2.00;;;;;20.25;52.61;101285.25;4849263;29;45529;-87
2023/07/18 02:37:32;;;;;;;;;4.00;3.00;;;;;20.19;52.83;101283.56;4845889;29;47344;-87
2023/07/18 02:39:57;;;;;;;;;1.33;1.33;;;;;20.19;52.55;101281.75;4848784;29;45440;-86
2023/07/18 02:42:24;;;;;;;;;3.00;1.00;;;;;20.22;52.55;101277.19;4849060;29;45477;-86
2023/07/18 02:44:49;;;;;;;;;2.00;1.00;;;;;20.14;52.90;101270.13;4850029;29;44973;-86
2023/07/18 02:47:15;;;;;;;;;3.00;2.00;;;;;20.16;52.42;101276.41;4848380;29;45450;-86
2023/07/18 02:49:40;;;;;;;;;2.33;1.00;;;;;20.09;52.92;101263.91;4833994;29;45907;-86
2023/07/18 02:52:07;;;;;;;;;3.33;3.00;;;;;20.18;52.98;101277.28;4847150;29;45760;-86
2023/07/18 02:54:33;;;;;;;;;7.00;3.00;;;;;20.02;53.30;101251.44;4849585;29;45288;-85
2023/07/18 02:56:59;;;;;;;;;2.67;1.67;;;;;20.10;52.75;101265.72;4833879;29;47087;-85
2023/07/18 02:59:25;;;;;;;;;3.67;1.00;;;;;20.09;52.66;101261.22;4846430;29;45467;-85
2023/07/18 03:01:54;;;;;;;;;1.67;1.67;;;;;20.06;52.76;101263.97;4828016;29;45323;-86
2023/07/18 03:04:20;;;;;;;;;3.00;3.00;;;;;20.07;52.96;101265.75;4828273;29;45444;-86
2023/07/18 03:06:47;;;;;;;;;2.00;2.00;;;;;20.05;53.15;101248.69;4830344;29;45628;-85
2023/07/18 03:09:16;;;;;;;;;1.00;1.00;;;;;20.09;52.28;101255.81;4831329;29;45441;-85
2023/07/18 03:11:44;;;;;;;;;2.00;2.00;;;;;20.14;53.20;101258.44;4833729;29;45875;-86
2023/07/18 03:14:11;;;;;;;;;3.00;2.00;;;;;19.86;53.10;101225.63;4830704;29;45389;-85
2023/07/18 03:16:38;;;;;;;;;2.00;2.00;;;;;19.90;52.58;101230.06;4828198;29;47478;-86
2023/07/18 03:19:04;;;;;;;;;1.67;1.67;;;;;20.06;52.90;101247.78;4828296;29;45439;-86
2023/07/18 03:21:29;;;;;;;;;3.00;3.00;;;;;19.94;53.32;101239.88;4829984;29;44890;-86
2023/07/18 03:23:55;;;;;;;;;0.00;0.00;;;;;20.00;52.92;101255.97;4830336;29;45331;-86
2023/07/18 03:26:20;;;;;;;;;3.00;3.00;;;;;19.97;52.70;101247.91;4830778;29;45839;-86
2023/07/18 03:28:46;;;;;;;;;5.67;4.00;;;;;19.96;53.47;101248.84;4830344;29;45724;-85
2023/07/18 03:31:11;;;;;;;;;3.00;1.67;;;;;19.93;52.87;101251.59;4814054;29;45321;-86
2023/07/18 03:33:37;;;;;;;;;1.00;1.00;;;;;19.93;52.69;101248.88;4830108;29;45419;-85
2023/07/18 03:36:04;;;;;;;;;3.00;3.00;;;;;19.93;52.60;101255.16;4830248;29;47771;-85
2023/07/18 03:38:30;;;;;;;;;3.00;3.00;;;;;19.87;52.91;101236.38;4830666;29;45691;-86
2023/07/18 03:40:57;;;;;;;;;4.00;2.67;;;;;19.90;52.65;101246.25;4830129;29;45445;-86
2023/07/18 03:43:22;;;;;;;;;3.33;3.33;;;;;19.91;52.70;101240.81;4831145;29;45280;-86
2023/07/18 03:45:48;;;;;;;;;6.00;3.33;;;;;19.92;53.01;101230.94;4828786;29;46752;-86
2023/07/18 03:48:13;;;;;;;;;3.00;3.00;;;;;19.98;53.06;101238.91;4828235;29;45433;-86
2023/07/18 03:50:42;;;;;;;;;2.00;2.00;;;;;20.03;52.75;101233.44;4829043;29;45519;-86
2023/07/18 03:53:08;;;;;;;;;4.00;3.00;;;;;19.82;53.10;101213.09;4845647;29;45431;-86
2023/07/18 03:55:34;;;;;;;;;3.00;3.00;;;;;19.88;52.69;101229.19;4829933;29;46612;-86
2023/07/18 03:58:00;;;;;;;;;2.67;2.67;;;;;19.94;52.38;101231.78;4832205;29;45359;-85
2023/07/18 04:00:26;;;;;;;;;1.67;1.67;;;;;19.85;52.28;101223.84;4828813;29;45317;-86
2023/07/18 04:02:51;;;;;;;;;4.00;4.00;;;;;19.89;52.42;101220.16;4829419;29;45376;-86
2023/07/18 04:05:17;;;;;;;;;4.00;3.00;;;;;19.97;52.61;101234.41;4829139;29;47151;-87
2023/07/18 04:07:44;;;;;;;;;3.00;3.00;;;;;19.89;52.60;101226.44;4830315;29;45269;-86
2023/07/18 04:10:11;;;;;;;;;2.33;2.33;;;;;19.95;52.54;101228.16;4830833;29;45571;-86
2023/07/18 04:12:38;;;;;;;;;1.00;1.00;;;;;19.89;52.52;101220.16;4831048;29;45485;-86
2023/07/18 04:15:04;;;;;;;;;1.00;1.00;;;;;19.89;52.41;101215.66;4828987;29;45566;-86
2023/07/18 04:17:30;;;;;;;;;2.00;1.67;;;;;19.78;52.26;101196.94;4830310;29;45451;-86
2023/07/18 04:20:01;;;;;;;;;1.33;1.33;;;;;19.93;52.51;101216.50;4813284;29;45478;-87
2023/07/18 04:22:29;;;;;;;;;1.33;1.00;;;;;19.80;51.80;101205.03;4844136;29;45083;-86
2023/07/18 04:24:55;;;;;;;;;3.00;3.00;;;;;19.74;51.98;101192.50;4828472;29;47858;-86
2023/07/18 04:27:21;;;;;;;;;2.00;2.00;;;;;19.80;51.86;101199.63;4829543;29;45964;-86
2023/07/18 04:29:46;;;;;;;;;2.00;1.00;;;;;19.90;51.90;101203.94;4828578;29;45757;-87
2023/07/18 04:32:12;;;;;;;;;2.00;1.00;;;;;19.94;51.58;101200.28;4843544;29;45340;-85
2023/07/18 04:34:37;;;;;;;;;2.00;2.00;;;;;19.94;51.68;101194.00;4831026;29;46027;-85
2023/07/18 04:37:03;;;;;;;;;1.00;1.00;;;;;19.99;51.82;101192.09;4830941;29;45390;-85
2023/07/18 04:39:29;;;;;;;;;3.00;1.00;;;;;19.98;51.65;101187.63;4831795;29;45451;-85
2023/07/18 04:41:54;;;;;;;;;3.33;2.00;;;;;20.07;51.48;101189.25;4846089;29;45594;-86
2023/07/18 04:44:24;;;;;;;;;2.33;1.67;;;;;20.19;51.22;101192.63;4833081;29;46342;-86
2023/07/18 04:46:49;;;;;;;;;2.67;2.33;;;;;20.14;51.12;101186.41;4846436;29;45410;-86
2023/07/18 04:49:18;;;;;;;;;1.00;1.00;;;;;20.29;50.93;101187.06;4829951;29;45412;-85
2023/07/18 04:51:43;;;;;;;;;2.00;1.00;;;;;20.25;50.90;101180.81;4845143;29;45017;-85
2023/07/18 04:54:08;;;;;;;;;2.67;2.00;;;;;20.28;50.77;101183.47;4829686;29;45410;-86
2023/07/18 04:56:53;;;;;;;;;2.00;2.00;;;;;20.52;50.54;101190.22;4832087;29;44887;-86
2023/07/18 04:59:18;;;;;;;;;3.67;2.00;;;;;20.64;50.22;101182.78;4828365;29;44869;-87
2023/07/18 05:01:44;;;;;;;;;2.00;2.00;;;;;20.73;49.70;101161.88;4844883;29;45434;-86
2023/07/18 05:04:11;;;;;;;;;4.00;2.00;;;;;20.84;49.55;101169.75;4830165;29;47061;-86
2023/07/18 05:06:36;;;;;;;;;1.67;1.67;;;;;20.86;49.65;101172.41;4832912;29;45460;-86
2023/07/18 05:09:03;;;;;;;;;2.33;2.00;;;;;21.05;49.69;101160.28;4833114;29;45435;-86
2023/07/18 05:11:29;;;;;;;;;2.00;2.00;;;;;21.09;49.38;101158.41;4849439;29;45436;-85
2023/07/18 05:13:54;;;;;;;;;1.33;1.00;;;;;21.12;48.86;101142.09;4835118;29;45929;-85
2023/07/18 05:16:19;;;;;;;;;3.33;1.67;;;;;21.08;48.58;101149.38;4831404;29;45417;-85
2023/07/18 05:18:45;;;;;;;;;2.00;2.00;;;;;21.17;48.91;101167.22;4832899;29;45175;-85
2023/07/18 05:21:12;;;;;;;;;1.00;1.00;;;;;21.17;48.42;101167.22;4829875;29;45688;-86
2023/07/18 05:23:37;;;;;;;;;5.00;2.33;;;;;21.14;48.68;101168.16;4833213;29;45316;-85
2023/07/18 05:26:04;;;;;;;;;2.67;2.67;;;;;21.25;49.16;101164.31;4831043;29;45823;-86
2023/07/18 05:28:29;;;;;;;;;3.67;2.67;;;;;21.42;48.70;101161.22;4830120;29;45446;-87
2023/07/18 05:30:55;;;;;;;;;3.00;3.00;;;;;21.60;48.35;101162.63;4832036;29;45405;-85
2023/07/18 05:36:42;;;;;;;;;3.00;3.00;;;;;21.86;47.62;101146.59;4836410;29;45412;-86
2023/07/18 05:39:11;;;;;;;;;2.00;2.00;;;;;21.83;47.77;101145.78;4835370;29;45354;-85
2023/07/18 05:41:36;;;;;;;;;3.67;1.00;;;;;21.91;47.39;101151.88;4833353;29;45873;-85
2023/07/18 05:44:02;;;;;;;;;2.33;2.33;;;;;22.01;47.39;101149.81;4833965;29;46879;-84
2023/07/18 05:46:31;;;;;;;;;3.00;3.00;;;;;22.01;46.99;101163.38;4831254;29;45559;-84
2023/07/18 05:49:03;;;;;;;;;3.00;2.33;;;;;22.15;47.45;101172.00;4832714;29;45338;-85
2023/07/18 05:51:31;;;;;;;;;5.67;1.33;;;;;22.22;47.03;101156.47;4835120;29;45455;-84
2023/07/18 05:53:56;;;;;;;;;3.67;3.00;;;;;22.31;45.73;101158.97;4833133;29;45515;-84
2023/07/18 05:56:22;;;;;;;;;2.33;2.33;;;;;22.29;46.42;101160.84;4831755;29;45439;-83
2023/07/18 05:58:48;;;;;;;;;2.67;2.67;;;;;22.17;45.83;101165.63;4832758;29;45780;-83
2023/07/18 06:01:14;;;;;;;;;0.33;0.33;;;;;21.88;45.87;101149.28;4835127;29;45321;-84
2023/07/18 06:03:40;;;;;;;;;2.00;2.00;;;;;21.90;45.68;101155.53;4847778;29;45406;-84
2023/07/18 06:06:07;;;;;;;;;1.00;1.00;;;;;22.04;45.47;101168.72;4832590;29;45503;-84
2023/07/18 06:08:32;;;;;;;;;2.00;2.00;;;;;22.12;45.44;101175.69;4838768;29;44814;-84
2023/07/18 06:10:58;;;;;;;;;3.00;3.00;;;;;22.29;45.50;101171.66;4852074;29;45521;-86
2023/07/18 06:13:24;;;;;;;;;2.00;2.00;;;;;22.28;44.14;101169.88;4849274;29;45628;-84
2023/07/18 06:15:50;;;;;;;;;1.00;1.00;;;;;22.34;44.78;101176.03;4850985;29;45340;-84
2023/07/18 06:18:16;;;;;;;;;2.00;2.00;;;;;22.36;44.55;101170.59;4853398;29;44951;-84
2023/07/18 06:20:41;;;;;;;;;1.00;1.00;;;;;22.49;44.68;101155.72;4836723;29;45430;-83
2023/07/18 06:23:08;;;;;;;;;4.67;3.00;;;;;22.81;44.15;101175.59;4835742;29;47346;-84
2023/07/18 06:25:35;;;;;;;;;1.00;1.00;;;;;22.97;43.82;101166.06;4857023;29;45428;-84
2023/07/18 06:28:01;;;;;;;;;1.33;1.33;;;;;23.12;43.75;101164.72;4837725;29;45970;-86
2023/07/18 06:30:26;;;;;;;;;3.00;3.00;;;;;23.33;42.95;101171.31;4831230;29;45623;-87
2023/07/18 06:32:52;;;;;;;;;4.33;4.33;;;;;23.52;42.80;101181.56;4845434;29;46824;-87
2023/07/18 06:38:44;;;;;;;;;2.33;2.00;;;;;24.00;41.83;101148.28;4853503;29;45558;-88
2023/07/18 06:41:19;;;;;;;;;4.00;4.00;;;;;24.05;42.17;101173.44;4836207;29;44812;-88
2023/07/18 06:44:07;;;;;;;;;4.00;4.00;;;;;24.12;41.54;101179.56;4836474;29;45252;-88
2023/07/18 06:46:45;;;;;;;;;4.00;4.00;;;;;23.93;41.80;101152.13;4854796;29;45323;-86
2023/07/18 06:49:22;;;;;;;;;3.67;3.67;;;;;23.78;41.64;101134.56;4826500;29;44905;-87
2023/07/18 06:52:01;;;;;;;;;;;;;;;;;;;;;
2023/07/18 06:54:33;;;;;;;;;4.00;4.00;;;;;23.50;41.79;101148.16;4839735;29;75021;-87
2023/07/18 06:57:04;;;;;;;;;3.00;3.00;;;;;23.28;41.84;101146.13;4860271;29;45948;-86
2023/07/18 06:59:39;;;;;;;;;4.33;4.33;;;;;23.46;41.57;101198.06;4860315;29;45472;-86
2023/07/18 07:02:14;;;;;;;;;3.00;3.00;;;;;23.02;41.66;101154.22;4852491;29;45345;-86
2023/07/18 07:05:04;;;;;;;;;3.00;3.00;;;;;22.99;41.85;101160.59;4853592;29;46099;-86
2023/07/18 07:10:53;;;;;;;;;4.33;3.00;;;;;23.31;42.36;101194.91;4794840;29;45552;-86
2023/07/18 07:17:08;;;;;;;;;;;;;;;;;;;;;
2023/07/18 07:19:37;;;;;;;;;6.33;6.33;;;;;23.18;42.26;101201.63;4765433;29;71981;-86
2023/07/18 07:22:11;;;;;;;;;6.00;5.67;;;;;23.23;42.36;101196.03;4760307;29;45403;-86
2023/07/18 07:24:40;;;;;;;;;5.33;5.00;;;;;23.25;42.54;101180.59;4765914;29;45557;-86
2023/07/18 07:31:05;;;;;;;;;5.67;5.67;;;;;23.93;41.74;101212.78;4760820;29;45532;-87
2023/07/18 07:34:22;;;;;;;;;4.00;4.00;;;;;24.17;41.52;101153.09;4765666;29;45670;-86
2023/07/18 07:37:10;;;;;;;;;4.00;4.00;;;;;24.72;40.67;101144.75;4735907;29;45585;-87
2023/07/18 07:40:16;;;;;;;;;4.00;4.00;;;;;24.46;40.14;101108.53;4749379;29;45381;-87
2023/07/18 07:53:06;;;;;;;;;2.33;2.33;;;;;23.56;41.26;100995.91;4777937;29;45749;-84
2023/07/18 07:58:39;;;;;;;;;4.33;3.00;;;;;23.08;42.36;100961.41;4751726;29;45875;-84
2023/07/18 08:01:37;;;;;;;;;4.67;4.00;;;;;23.17;42.44;100951.13;4772583;29;45444;-84
2023/07/18 08:04:53;;;;;;;;;4.00;4.00;;;;;23.66;41.97;100959.31;4767577;29;45500;-86
2023/07/18 08:07:36;;;;;;;;;3.33;3.33;;;;;23.68;41.64;100946.56;4816266;29;45384;-86
2023/07/18 08:10:19;;;;;;;;;5.00;3.00;;;;;24.04;41.66;100953.44;4846466;29;46311;-84
2023/07/18 08:12:59;;;;;;;;;2.33;2.33;;;;;24.11;41.10;100923.22;4834686;29;45527;-84
2023/07/18 08:23:21;;;;;;;;;7.00;4.00;;;;;24.21;40.85;100922.88;4726774;30;45466;-87
2023/07/18 08:37:19;;;;;;;;;3.33;3.33;;;;;24.82;40.28;101018.31;967925;27;46137;-86
2023/07/18 08:40:40;;;;;;;;;6.67;4.67;;;;;24.99;40.63;101027.63;4846451;29;45576;-86
2023/07/18 08:43:27;;;;;;;;;3.00;3.00;;;;;25.06;40.31;101012.81;4811395;29;45537;-85
2023/07/18 08:49:36;;;;;;;;;3.33;3.33;;;;;25.38;39.51;100997.84;4760898;29;44987;-86
2023/07/18 08:56:17;;;;;;;;;3.67;3.67;;;;;25.91;38.66;101037.31;4693014;30;45447;-86
2023/07/18 08:59:23;;;;;;;;;3.67;3.67;;;;;25.68;38.97;101003.78;4707210;29;45577;-87
2023/07/18 09:01:50;;;;;;;;;5.00;5.00;;;;;25.70;39.40;101017.34;4708104;30;45478;-83
2023/07/18 09:04:25;;;;;;;;;5.00;5.00;;;;;25.87;39.31;101041.09;4703411;30;45638;-84
2023/07/18 09:07:00;;;;;;;;;4.00;3.67;;;;;25.80;38.70;101013.25;4768892;29;45073;-83
2023/07/18 09:09:44;;;;;;;;;9.00;4.67;;;;;25.92;38.94;101028.19;4798034;29;45643;-84
2023/07/18 09:12:15;;;;;;;;;15.00;14.33;;;;;25.84;38.74;101009.44;4783908;29;45564;-82
2023/07/18 09:14:55;;;;;;;;;5.67;5.67;;;;;26.07;38.83;101027.47;4781434;29;46777;-83
2023/07/18 09:17:34;;;;;;;;;4.33;4.33;;;;;26.21;38.91;101032.28;4780824;29;45538;-84
2023/07/18 09:20:07;;;;;;;;;4.33;4.33;;;;;26.15;39.07;100991.69;4788877;29;45422;-84
2023/07/18 09:22:41;;;;;;;;;7.67;6.00;;;;;26.52;38.98;101033.56;4790557;29;45656;-85
2023/07/18 09:25:29;;;;;;;;;6.00;4.67;;;;;26.74;38.44;101025.25;4779864;29;45453;-84
2023/07/18 09:27:58;;;;;;;;;3.67;3.67;;;;;26.78;38.15;101018.69;4792326;29;44817;-84
2023/07/18 09:30:36;;;;;;;;;3.67;3.67;;;;;26.79;37.65;100998.63;4782915;29;45517;-83
2023/07/18 09:33:24;;;;;;;;;3.33;3.33;;;;;26.88;37.69;101009.06;4785831;29;45439;-85
2023/07/18 09:35:50;;;;;;;;;5.33;4.00;;;;;26.77;37.35;101014.22;4795420;29;45366;-85
2023/07/18 09:38:15;;;;;;;;;5.33;4.67;;;;;26.61;37.69;100999.56;4847996;29;45655;-84
2023/07/18 09:40:46;;;;;;;;;4.00;4.00;;;;;26.78;37.75;101001.44;4864639;29;45138;-84
2023/07/18 09:43:12;;;;;;;;;4.00;3.00;;;;;26.60;37.92;100981.41;4875611;29;45586;-86
2023/07/18 09:45:52;;;;;;;;;4.33;4.33;;;;;26.64;37.18;100969.38;4862170;29;45690;-86
2023/07/18 09:48:28;;;;;;;;;4.33;3.00;;;;;26.67;37.34;100982.88;4871840;29;45290;-84
2023/07/18 09:50:57;;;;;;;;;4.00;4.00;;;;;26.54;37.40;100969.81;4873764;29;45439;-82
2023/07/18 09:53:49;;;;;;;;;3.00;3.00;;;;;26.58;37.51;100973.28;4876275;29;44887;-83
2023/07/18 09:56:16;;;;;;;;;4.00;4.00;;;;;26.73;36.64;100982.56;4869129;29;46425;-83
2023/07/18 09:58:48;;;;;;;;;1.33;1.33;;;;;26.73;37.02;100958.03;4864178;29;45360;-82
2023/07/18 10:01:48;;;;;;;;;4.33;4.33;;;;;26.78;36.94;100953.19;4876721;29;46021;-83
2023/07/18 10:04:20;;;;;;;;;3.00;3.00;;;;;26.91;37.16;100991.69;4867134;29;44860;-82
2023/07/18 10:06:50;;;;;;;;;3.67;2.33;;;;;26.91;37.22;100975.31;4874758;29;46979;-83
2023/07/18 10:09:28;;;;;;;;;4.67;4.33;;;;;27.00;36.72;100954.84;4852364;29;45391;-84
2023/07/18 10:12:09;;;;;;;;;3.33;3.33;;;;;27.30;36.73;100979.72;4865859;29;46974;-84
2023/07/18 10:15:09;;;;;;;;;;;;;;;;;;;;;
2023/07/18 10:18:26;;;;;;;;;3.33;3.00;;;;;26.93;36.15;100935.19;4874011;29;74629;-85
2023/07/18 10:21:00;;;;;;;;;2.33;2.33;;;;;27.16;36.50;100964.00;4819331;29;46122;-87
2023/07/18 10:23:48;;;;;;;;;3.33;3.33;;;;;27.02;36.41;100934.69;4824312;29;44974;-85
2023/07/18 10:27:39;;;;;;;;;3.00;3.00;;;;;27.17;36.24;100937.59;4766357;29;45392;-84
2023/07/18 10:30:22;;;;;;;;;5.00;5.00;;;;;27.36;36.08;100951.22;4765156;29;45349;-87
2023/07/18 10:33:20;;;;;;;;;7.00;4.00;;;;;27.47;36.10;100940.56;4762197;29;44843;-87
2023/07/18 10:35:48;;;;;;;;;4.33;4.33;;;;;27.43;36.43;100934.41;4759676;29;45759;-86
2023/07/18 10:38:15;;;;;;;;;4.00;4.00;;;;;27.60;36.77;100949.03;4734443;29;45551;-84
2023/07/18 10:40:52;;;;;;;;;5.00;4.00;;;;;27.68;36.24;100922.16;4760341;29;46210;-83
2023/07/18 10:43:24;;;;;;;;;2.33;2.33;;;;;27.63;35.70;100916.97;4748203;29;45511;-84
2023/07/18 10:46:08;;;;;;;;;7.33;5.00;;;;;27.59;35.46;100901.69;4729566;29;45644;-86
2023/07/18 10:48:33;;;;;;;;;2.67;2.67;;;;;27.67;35.89;100920.38;4743965;29;45572;-84
2023/07/18 10:51:00;;;;;;;;;5.00;5.00;;;;;27.54;35.98;100895.59;4748079;29;47300;-84
2023/07/18 10:53:30;;;;;;;;;5.00;5.00;;;;;27.39;36.11;100871.81;4763811;29;45416;-85
2023/07/18 10:56:00;;;;;;;;;3.33;3.33;;;;;27.53;35.72;100893.81;4754054;29;45115;-84
2023/07/18 10:58:51;;;;;;;;;3.00;3.00;;;;;27.56;34.75;100890.91;4765384;29;44850;-86
2023/07/18 11:01:21;;;;;;;;;2.00;1.00;;;;;27.68;35.63;100905.75;4780558;29;45560;-85
2023/07/18 11:04:08;;;;;;;;;2.67;2.67;;;;;27.78;35.47;100911.59;4855518;29;45564;-86
2023/07/18 11:06:59;;;;;;;;;2.33;2.33;;;;;27.90;35.70;100894.56;4876609;29;45428;-85
2023/07/18 11:09:28;;;;;;;;;3.33;3.00;;;;;28.04;35.76;100908.34;4862296;29;45337;-85
2023/07/18 11:12:02;;;;;;;;;2.00;2.00;;;;;28.05;35.15;100898.28;4858386;29;45333;-85
2023/07/18 11:15:26;;;;;;;;;3.00;3.00;;;;;28.11;35.44;100893.31;4848679;29;45517;-85
2023/07/18 11:18:49;;;;;;;;;1.33;1.33;;;;;28.17;34.72;100891.22;4799798;29;45526;-85
2023/07/18 11:24:55;;;;;;;;;3.33;3.33;;;;;27.91;34.89;100847.09;4793678;29;45502;-84
2023/07/18 11:27:37;;;;;;;;;5.67;2.00;;;;;27.91;33.94;100866.25;4768096;29;44915;-85
2023/07/18 11:45:28;;;;;;;;;;;;;;;;;;;;;
2023/07/18 11:48:48;;;;;;;;;;;;;;;;;;;;;
2023/07/18 11:51:27;;;;;;;;;4.00;4.00;;;;;28.85;33.81;100860.81;4734679;30;74465;-86
2023/07/18 11:53:57;;;;;;;;;2.67;2.67;;;;;28.93;34.08;100842.06;4743122;29;45386;-84
2023/07/18 11:56:40;;;;;;;;;;;;;;;;;;;;;
2023/07/18 11:59:19;;;;;;;;;4.33;4.33;;;;;29.09;33.18;100817.34;4738921;29;65350;-86
2023/07/18 12:01:53;;;;;;;;;2.33;2.33;;;;;29.17;33.07;100836.97;4765102;29;46150;-87
2023/07/18 12:04:35;;;;;;;;;2.00;2.00;;;;;29.22;33.08;100821.09;4786104;29;44761;-86
2023/07/18 12:07:18;;;;;;;;;4.00;4.00;;;;;29.28;33.21;100828.06;4771274;29;44882;-87
2023/07/18 12:09:47;;;;;;;;;9.33;4.33;;;;;29.19;33.37;100787.53;4762004;29;45420;-87
2023/07/18 12:12:57;;;;;;;;;;;;;;;;;;;;;
2023/07/18 12:18:48;;;;;;;;;4.00;4.00;;;;;29.14;32.75;100787.84;4732673;30;45534;-87
2023/07/18 12:21:25;;;;;;;;;2.33;2.33;;;;;29.20;32.48;100808.50;4729648;30;44966;-86
2023/07/18 12:24:34;;;;;;;;;4.00;3.33;;;;;29.05;33.02;100772.84;4727899;29;46368;-86
2023/07/18 12:27:36;;;;;;;;;3.33;3.33;;;;;29.17;31.98;100793.13;4715574;30;45514;-85
2023/07/18 12:30:37;;;;;;;;;;;;;;;;;;;;;
2023/07/18 12:33:33;;;;;;;;;;;;;;;;;;;;;
2023/07/18 12:36:50;;;;;;;;;5.00;5.00;;;;;29.38;32.72;100768.09;4723837;30;76514;-86
2023/07/18 12:40:53;;;;;;;;;;;;;;;;;;;;;
2023/07/18 12:47:53;;;;;;;;;3.33;3.33;;;;;29.33;32.26;100757.44;4703913;30;44839;-86
2023/07/18 12:50:39;;;;;;;;;4.67;4.67;;;;;29.31;32.16;100754.78;4686138;30;45339;-88
2023/07/18 12:56:43;;;;;;;;;3.00;3.00;;;;;29.34;31.33;100718.09;4679649;30;45565;-88
2023/07/18 13:02:48;;;;;;;;;;;;;;;;;;;;;
2023/07/18 13:06:03;;;;;;;;;;;;;;;;;;;;;
2023/07/18 13:08:57;;;;;;;;;4.67;3.67;;;;;29.66;32.10;100726.94;4716632;29;67867;-87
2023/07/18 13:11:35;;;;;;;;;;;;;;;;;;;;;
2023/07/18 13:14:46;;;;;;;;;5.00;5.00;;;;;29.79;31.99;100718.78;4789903;29;74461;-86
2023/07/18 13:50:00;;;;;;;;;3.67;3.00;;;;;30.90;30.52;100687.41;4716780;30;44895;-88
2023/07/18 14:11:04;;;;;;;;;4.33;4.33;;;;;35.33;26.76;100677.25;4828922;29;45144;-89
2023/07/18 14:14:19;;;;;;;;;4.00;4.00;;;;;35.41;26.19;100670.03;4862821;29;44811;-86
2023/07/18 14:17:17;;;;;;;;;5.00;5.00;;;;;36.79;25.23;100642.22;4820161;29;45924;-86
2023/07/18 14:19:53;;;;;;;;;5.00;3.33;;;;;36.61;24.53;100641.25;4801256;29;44936;-85
2023/07/18 14:25:28;;;;;;;;;7.00;5.00;;;;;36.30;25.02;100663.63;5585354;23;46614;-84
2023/07/18 14:28:24;;;;;;;;;4.00;4.00;;;;;37.03;24.85;100660.25;4836571;29;45538;-87
2023/07/18 14:31:00;;;;;;;;;4.67;3.33;;;;;37.20;24.70;100630.84;4854527;29;45547;-86
2023/07/18 14:41:52;;;;;;;;;4.33;4.33;;;;;35.44;25.01;100666.97;5038160;23;46232;-88
2023/07/18 14:50:57;;;;;;;;;4.67;4.67;;;;;34.59;25.72;100650.69;4822737;29;45412;-87
2023/07/18 15:04:43;;;;;;;;;;;;;;;;;;;;;
2023/07/18 15:14:23;;;;;;;;;3.00;3.00;;;;;36.90;23.42;100630.06;4780463;29;44955;-86
2023/07/18 15:17:21;;;;;;;;;;;;;;;;;;;;;